Time;durP1;ratioP1;P1;durP2;ratioP2;P2;SDS_P1;SDS_P2;PMS_P1;PMS_P2;Temp;Humidity;BMP_temperature;BMP_pressure;BME280_temperature;BME280_humidity;BME280_pressure;Samples;Min_cycle;Max_cycle;Signal;HPM_P1;HPM_P2
2022/03/06 00:02:11;;;;;;;28.30;20.10;;;6.70;90.20;;;;;;5065542;28;20776;-68
2022/03/06 00:04:37;;;;;;;29.20;20.00;;;6.70;90.00;;;;;;5066102;28;20419;-68
2022/03/06 00:07:04;;;;;;;26.23;19.92;;;6.60;90.20;;;;;;5065548;28;20764;-69
2022/03/06 00:09:30;;;;;;;28.95;20.90;;;6.70;90.30;;;;;;5064713;28;20486;-66
2022/03/06 00:11:56;;;;;;;29.13;20.90;;;6.70;90.20;;;;;;5070139;28;20465;-65
2022/03/06 00:14:22;;;;;;;29.27;20.48;;;6.60;90.20;;;;;;5064008;28;20481;-65
2022/03/06 00:16:47;;;;;;;29.48;21.10;;;6.60;90.10;;;;;;5065986;28;20404;-64
2022/03/06 00:19:14;;;;;;;28.58;20.38;;;6.60;90.30;;;;;;5064451;28;20403;-65
2022/03/06 00:21:40;;;;;;;29.02;21.48;;;6.70;90.50;;;;;;5049966;28;20408;-65
2022/03/06 00:24:06;;;;;;;28.63;20.93;;;6.70;90.40;;;;;;5064219;28;21112;-68
2022/03/06 00:26:33;;;;;;;29.02;21.40;;;6.60;90.40;;;;;;5066138;28;20922;-67
2022/03/06 00:28:59;;;;;;;30.35;21.63;;;6.70;90.30;;;;;;5066775;28;20407;-67
2022/03/06 00:31:24;;;;;;;31.23;21.70;;;6.70;90.50;;;;;;5066073;28;20420;-68
2022/03/06 00:33:51;;;;;;;28.43;21.37;;;6.70;90.60;;;;;;5063652;28;20710;-68
2022/03/06 00:36:18;;;;;;;30.40;21.33;;;6.70;90.60;;;;;;5066410;28;20422;-67
2022/03/06 00:38:44;;;;;;;28.20;21.38;;;6.80;90.70;;;;;;5066416;28;20430;-68
2022/03/06 00:41:11;;;;;;;28.77;21.55;;;6.80;90.50;;;;;;5047230;28;20414;-70
2022/03/06 00:43:37;;;;;;;30.30;22.17;;;6.80;90.60;;;;;;5065604;28;20411;-68
2022/03/06 00:46:03;;;;;;;31.02;22.15;;;6.80;90.60;;;;;;5065885;28;20987;-69
2022/03/06 00:48:28;;;;;;;29.57;22.23;;;6.80;90.50;;;;;;5063040;28;20899;-68
2022/03/06 00:50:54;;;;;;;31.30;21.77;;;6.80;90.60;;;;;;5048211;28;20511;-70
2022/03/06 00:53:20;;;;;;;32.50;22.17;;;6.80;90.60;;;;;;5064624;28;20408;-70
2022/03/06 00:55:46;;;;;;;29.17;21.83;;;6.80;90.60;;;;;;5049236;28;20411;-70
2022/03/06 00:58:12;;;;;;;29.63;21.77;;;6.90;90.50;;;;;;5063323;28;20407;-68
2022/03/06 01:00:43;;;;;;;30.23;21.70;;;6.90;90.50;;;;;;5074039;28;20413;-69
2022/03/06 01:03:11;;;;;;;28.33;21.83;;;6.90;90.60;;;;;;5068955;28;20427;-70
2022/03/06 01:05:37;;;;;;;29.65;21.90;;;6.90;90.50;;;;;;5048201;28;20415;-68
2022/03/06 01:08:04;;;;;;;30.05;22.65;;;6.90;90.70;;;;;;5067055;28;20468;-69
2022/03/06 01:10:31;;;;;;;33.20;22.60;;;6.90;90.70;;;;;;5069111;28;20422;-68
2022/03/06 01:12:57;;;;;;;29.23;22.00;;;6.90;90.50;;;;;;5068232;28;20445;-69
2022/03/06 01:15:23;;;;;;;29.00;21.73;;;6.90;90.30;;;;;;5067880;28;20419;-69
2022/03/06 01:17:49;;;;;;;28.52;21.65;;;7.00;90.60;;;;;;5066913;28;20424;-68
2022/03/06 01:20:17;;;;;;;32.03;22.47;;;7.00;90.30;;;;;;5049667;28;20476;-69
2022/03/06 01:22:45;;;;;;;28.30;20.92;;;7.00;90.20;;;;;;5067004;28;20442;-68
2022/03/06 01:25:11;;;;;;;30.13;22.45;;;7.00;90.20;;;;;;5070191;28;20890;-66
2022/03/06 01:27:37;;;;;;;28.25;21.77;;;7.00;90.30;;;;;;5067991;28;20415;-68
2022/03/06 01:30:05;;;;;;;28.73;21.77;;;7.00;90.30;;;;;;5066627;28;20522;-68
2022/03/06 01:32:32;;;;;;;28.45;21.45;;;7.00;90.20;;;;;;5052934;28;20420;-67
2022/03/06 01:34:58;;;;;;;28.42;21.48;;;7.00;90.20;;;;;;5074109;28;20461;-68
2022/03/06 01:37:24;;;;;;;27.42;21.88;;;7.00;90.10;;;;;;5067252;28;20419;-67
2022/03/06 01:39:49;;;;;;;27.47;21.00;;;7.00;90.50;;;;;;5051795;28;20446;-67
2022/03/06 01:42:15;;;;;;;27.52;21.52;;;7.00;90.80;;;;;;5066256;28;20399;-66
2022/03/06 01:44:44;;;;;;;27.23;21.37;;;7.00;90.30;;;;;;5070998;28;20775;-67
2022/03/06 01:47:10;;;;;;;29.43;22.10;;;7.00;90.50;;;;;;5070475;28;20423;-66
2022/03/06 01:49:35;;;;;;;28.08;21.75;;;7.00;90.30;;;;;;5069110;28;20493;-67
2022/03/06 01:52:01;;;;;;;25.90;21.13;;;7.00;90.30;;;;;;5066519;28;20802;-67
2022/03/06 01:54:27;;;;;;;29.80;21.63;;;7.00;90.30;;;;;;5068483;28;20444;-67
2022/03/06 01:56:52;;;;;;;28.57;21.80;;;6.90;90.20;;;;;;5049334;28;20408;-66
2022/03/06 01:59:18;;;;;;;27.80;21.80;;;6.90;90.20;;;;;;5071598;28;20443;-66
2022/03/06 02:01:44;;;;;;;28.17;21.73;;;6.90;90.50;;;;;;5068011;28;20475;-67
2022/03/06 02:04:10;;;;;;;29.60;22.58;;;6.90;90.10;;;;;;5068922;28;20422;-67
2022/03/06 02:06:37;;;;;;;30.27;21.75;;;6.90;89.70;;;;;;5074327;28;20421;-66
2022/03/06 02:09:03;;;;;;;25.38;20.80;;;6.80;90.10;;;;;;5071152;28;20590;-67
2022/03/06 02:11:29;;;;;;;28.37;21.37;;;6.80;90.50;;;;;;5052754;28;20482;-68
2022/03/06 02:13:56;;;;;;;28.38;21.92;;;6.80;90.60;;;;;;5079352;28;20533;-68
2022/03/06 02:16:22;;;;;;;28.35;20.83;;;6.80;90.30;;;;;;5067577;28;20411;-69
2022/03/06 02:18:48;;;;;;;28.13;20.88;;;6.80;90.30;;;;;;5070053;28;20411;-68
2022/03/06 02:21:14;;;;;;;26.98;20.52;;;6.90;90.10;;;;;;5072827;28;20415;-69
2022/03/06 02:23:40;;;;;;;25.75;20.08;;;6.80;90.30;;;;;;5075894;28;20414;-69
2022/03/06 02:26:07;;;;;;;28.05;20.42;;;6.90;90.10;;;;;;5050953;28;20412;-67
2022/03/06 02:28:34;;;;;;;24.52;20.23;;;6.90;90.20;;;;;;5068125;28;20423;-67
2022/03/06 02:31:00;;;;;;;26.10;20.65;;;6.80;90.00;;;;;;5066313;28;20505;-67
2022/03/06 02:33:26;;;;;;;24.83;19.77;;;6.80;89.60;;;;;;5071203;28;20447;-67
2022/03/06 02:35:52;;;;;;;26.02;19.38;;;6.80;89.90;;;;;;5067797;28;20447;-66
2022/03/06 02:38:19;;;;;;;25.90;19.08;;;6.80;89.90;;;;;;5066364;28;20498;-66
2022/03/06 02:40:45;;;;;;;22.50;18.27;;;6.80;89.30;;;;;;5066706;28;20416;-66
2022/03/06 02:43:12;;;;;;;24.05;18.15;;;6.80;89.60;;;;;;5065024;28;20700;-67
2022/03/06 02:45:40;;;;;;;22.37;17.90;;;6.80;90.00;;;;;;5066610;28;20416;-67
2022/03/06 02:48:06;;;;;;;22.40;18.00;;;6.70;89.80;;;;;;5062974;28;20503;-68
2022/03/06 02:50:34;;;;;;;23.83;18.65;;;6.70;89.60;;;;;;5073228;28;20415;-67
2022/03/06 02:53:02;;;;;;;23.50;18.27;;;6.70;89.20;;;;;;5068293;28;20968;-66
2022/03/06 02:55:29;;;;;;;24.58;18.30;;;6.70;89.30;;;;;;5067020;28;20514;-66
2022/03/06 02:57:55;;;;;;;21.63;17.60;;;6.60;88.70;;;;;;5048462;28;20419;-66
2022/03/06 03:00:22;;;;;;;24.15;18.38;;;6.60;88.60;;;;;;5065719;28;20412;-66
2022/03/06 03:02:49;;;;;;;22.38;17.88;;;6.60;88.40;;;;;;5066388;28;20412;-67
2022/03/06 03:05:15;;;;;;;22.83;18.40;;;6.50;88.70;;;;;;5068094;28;20416;-66
2022/03/06 03:07:42;;;;;;;23.10;18.08;;;6.50;87.90;;;;;;5053027;28;20455;-66
2022/03/06 03:10:10;;;;;;;23.92;18.40;;;6.50;87.80;;;;;;5049295;28;20427;-66
2022/03/06 03:12:36;;;;;;;25.00;17.95;;;6.50;87.80;;;;;;5066422;28;20480;-66
2022/03/06 03:15:03;;;;;;;21.43;18.03;;;6.50;88.00;;;;;;5067345;28;20413;-65
2022/03/06 03:17:29;;;;;;;22.33;18.00;;;6.50;88.40;;;;;;5065720;28;20892;-68
2022/03/06 03:19:54;;;;;;;23.98;17.60;;;6.40;88.40;;;;;;5067115;28;20416;-65
2022/03/06 03:22:20;;;;;;;22.50;17.67;;;6.40;88.50;;;;;;5064782;28;20421;-66
2022/03/06 03:24:46;;;;;;;22.77;17.75;;;6.40;88.50;;;;;;5062093;28;20415;-68
2022/03/06 03:27:11;;;;;;;21.43;17.30;;;6.40;88.60;;;;;;5064714;28;20772;-69
2022/03/06 03:29:37;;;;;;;22.92;17.95;;;6.40;88.90;;;;;;5071013;28;20408;-69
2022/03/06 03:32:03;;;;;;;22.60;17.60;;;6.40;88.30;;;;;;5062663;28;20480;-68
2022/03/06 03:34:29;;;;;;;22.17;17.35;;;6.30;88.60;;;;;;5071732;28;20414;-68
2022/03/06 03:36:54;;;;;;;20.70;16.73;;;6.30;88.40;;;;;;5066821;28;20483;-67
2022/03/06 03:39:20;;;;;;;20.90;16.80;;;6.30;88.80;;;;;;5049551;28;20411;-68
2022/03/06 03:41:46;;;;;;;22.67;16.83;;;6.30;88.70;;;;;;5065860;28;20411;-68
2022/03/06 03:44:11;;;;;;;21.33;16.85;;;6.20;88.60;;;;;;5066473;28;20415;-68
2022/03/06 03:46:37;;;;;;;20.40;16.23;;;6.20;89.00;;;;;;5049259;28;20760;-67
2022/03/06 03:49:03;;;;;;;21.50;16.65;;;6.20;88.80;;;;;;5047127;28;20431;-66
2022/03/06 03:51:30;;;;;;;21.10;16.27;;;6.20;88.40;;;;;;5066214;28;20415;-67
2022/03/06 03:53:55;;;;;;;20.70;15.85;;;6.20;88.40;;;;;;5048096;28;20408;-67
2022/03/06 03:56:21;;;;;;;19.63;14.73;;;6.20;88.50;;;;;;5066394;28;20414;-67
2022/03/06 03:58:47;;;;;;;19.33;15.73;;;6.20;88.80;;;;;;5067266;28;20514;-67
2022/03/06 04:01:13;;;;;;;21.58;15.25;;;6.20;88.30;;;;;;5074890;28;20404;-66
2022/03/06 04:03:38;;;;;;;20.85;15.60;;;6.10;88.40;;;;;;5064428;28;20410;-66
2022/03/06 04:06:04;;;;;;;19.10;14.73;;;6.10;87.80;;;;;;5049112;28;20415;-67
2022/03/06 04:08:30;;;;;;;18.50;14.37;;;6.10;87.80;;;;;;5064970;28;20529;-67
2022/03/06 04:10:59;;;;;;;18.80;14.85;;;6.10;88.40;;;;;;5066935;28;20773;-67
2022/03/06 04:13:26;;;;;;;18.63;14.10;;;6.10;88.20;;;;;;5064358;28;20759;-66
2022/03/06 04:15:51;;;;;;;19.53;14.30;;;6.00;87.60;;;;;;5066748;28;20492;-67
2022/03/06 04:18:17;;;;;;;18.88;14.60;;;6.00;87.50;;;;;;5064916;28;20439;-66
2022/03/06 04:20:43;;;;;;;18.83;14.70;;;6.00;88.00;;;;;;5045020;28;20407;-65
2022/03/06 04:23:09;;;;;;;19.92;14.48;;;6.00;87.70;;;;;;5046314;28;20498;-66
2022/03/06 04:25:35;;;;;;;17.97;14.13;;;6.00;87.80;;;;;;5066733;28;20446;-66
2022/03/06 04:28:00;;;;;;;18.95;14.77;;;6.00;87.40;;;;;;5065189;28;20415;-67
2022/03/06 04:30:26;;;;;;;19.57;15.40;;;5.90;87.30;;;;;;5082987;28;20840;-64
2022/03/06 04:32:52;;;;;;;20.38;15.90;;;5.90;87.70;;;;;;5062770;28;20413;-66
2022/03/06 04:35:18;;;;;;;20.80;16.25;;;5.90;87.70;;;;;;5060598;28;20513;-65
2022/03/06 04:37:44;;;;;;;20.70;15.80;;;5.90;88.10;;;;;;5047544;28;20486;-68
2022/03/06 04:40:10;;;;;;;21.50;16.05;;;5.80;87.70;;;;;;5034010;28;20531;-65
2022/03/06 04:42:42;;;;;;;21.30;16.70;;;5.90;88.00;;;;;;5051918;28;20411;-67
2022/03/06 04:45:08;;;;;;;22.58;17.50;;;5.90;88.00;;;;;;5070939;28;20437;-67
2022/03/06 04:47:34;;;;;;;24.45;18.02;;;5.90;87.80;;;;;;5069097;28;20415;-68
2022/03/06 04:50:00;;;;;;;24.70;18.67;;;5.90;87.50;;;;;;5071252;28;20414;-68
2022/03/06 04:52:28;;;;;;;21.20;17.37;;;5.80;87.60;;;;;;5051242;28;20415;-67
2022/03/06 04:54:54;;;;;;;22.40;17.63;;;5.80;87.50;;;;;;5051777;28;20449;-66
2022/03/06 04:57:20;;;;;;;23.23;18.27;;;5.80;88.20;;;;;;5067951;28;20416;-67
2022/03/06 04:59:46;;;;;;;21.90;17.60;;;5.80;89.20;;;;;;5069766;28;20527;-67
2022/03/06 05:02:11;;;;;;;22.92;18.40;;;5.80;88.90;;;;;;5071976;28;20411;-70
2022/03/06 05:04:37;;;;;;;21.37;17.73;;;5.80;89.20;;;;;;5073193;28;20415;-70
2022/03/06 05:07:03;;;;;;;23.70;17.93;;;5.80;89.30;;;;;;5070043;28;20856;-69
2022/03/06 05:09:28;;;;;;;23.80;17.42;;;5.70;89.40;;;;;;5070195;28;20426;-69
2022/03/06 05:11:54;;;;;;;22.33;17.80;;;5.70;89.20;;;;;;5054898;28;20498;-67
2022/03/06 05:14:20;;;;;;;24.13;18.23;;;5.70;89.00;;;;;;5068805;28;20510;-67
2022/03/06 05:16:46;;;;;;;22.48;18.25;;;5.70;89.00;;;;;;5049148;28;20496;-68
2022/03/06 05:19:11;;;;;;;23.37;18.33;;;5.70;89.40;;;;;;5068502;28;20923;-69
2022/03/06 05:21:37;;;;;;;22.45;18.25;;;5.70;89.70;;;;;;5069196;28;21065;-68
2022/03/06 05:24:04;;;;;;;21.80;17.60;;;5.70;89.60;;;;;;5069755;28;20460;-69
2022/03/06 05:26:30;;;;;;;23.63;17.75;;;5.60;89.40;;;;;;5049703;28;20443;-68
2022/03/06 05:28:55;;;;;;;22.83;17.83;;;5.60;89.80;;;;;;5068180;28;20462;-69
2022/03/06 05:31:21;;;;;;;21.20;16.93;;;5.60;89.70;;;;;;5051879;28;20412;-69
2022/03/06 05:33:47;;;;;;;21.23;17.55;;;5.60;90.00;;;;;;5067940;28;20404;-69
2022/03/06 05:36:12;;;;;;;21.70;17.20;;;5.60;89.70;;;;;;5069877;28;20424;-69
2022/03/06 05:38:38;;;;;;;21.15;16.98;;;5.60;90.00;;;;;;5055420;28;20442;-68
2022/03/06 05:41:04;;;;;;;22.60;17.33;;;5.60;90.00;;;;;;5074436;28;20833;-69
2022/03/06 05:43:29;;;;;;;21.58;16.95;;;5.50;90.00;;;;;;5072190;28;20415;-67
2022/03/06 05:46:04;;;;;;;21.77;15.23;;;5.50;90.00;;;;;;5034512;28;20413;-67
2022/03/06 05:48:30;;;;;;;19.83;14.75;;;5.50;90.00;;;;;;5047051;28;22107;-69
2022/03/06 05:50:55;;;;;;;20.83;14.33;;;5.60;90.20;;;;;;5069171;28;20415;-69
2022/03/06 05:53:21;;;;;;;18.27;14.30;;;5.50;89.30;;;;;;5069930;28;20484;-69
2022/03/06 05:55:47;;;;;;;19.30;13.50;;;5.50;89.50;;;;;;5049666;28;20415;-70
2022/03/06 05:58:12;;;;;;;17.30;13.10;;;5.50;89.50;;;;;;5064320;28;20502;-69
2022/03/06 06:00:38;;;;;;;16.43;12.03;;;5.50;89.40;;;;;;5069125;28;20498;-68
2022/03/06 06:03:04;;;;;;;16.05;12.10;;;5.50;89.40;;;;;;5073586;28;20411;-70
2022/03/06 06:05:29;;;;;;;14.50;11.43;;;5.60;89.10;;;;;;5071650;28;20452;-69
2022/03/06 06:07:55;;;;;;;16.23;11.85;;;5.60;89.40;;;;;;5065889;28;20449;-69
2022/03/06 06:10:21;;;;;;;19.67;11.40;;;5.50;88.90;;;;;;5072933;28;20419;-68
2022/03/06 06:12:46;;;;;;;15.75;10.65;;;5.50;89.30;;;;;;5048196;28;20466;-68
2022/03/06 06:15:12;;;;;;;12.67;9.97;;;5.50;88.90;;;;;;5068457;28;20419;-68
2022/03/06 06:17:38;;;;;;;14.32;10.48;;;5.50;89.00;;;;;;5067411;28;20409;-67
2022/03/06 06:20:06;;;;;;;14.25;10.02;;;5.50;88.50;;;;;;5066723;28;20502;-68
2022/03/06 06:22:32;;;;;;;15.45;9.70;;;5.60;88.50;;;;;;5067947;28;20423;-65
2022/03/06 06:24:58;;;;;;;14.30;9.43;;;5.60;87.60;;;;;;5068107;28;20495;-66
2022/03/06 06:27:25;;;;;;;11.85;9.10;;;5.60;87.90;;;;;;5064095;28;20470;-68
2022/03/06 06:29:51;;;;;;;11.27;8.90;;;5.60;87.40;;;;;;5068369;28;20420;-67
2022/03/06 06:32:17;;;;;;;12.02;8.80;;;5.60;87.70;;;;;;5064681;28;20412;-67
2022/03/06 06:34:44;;;;;;;11.13;8.82;;;5.60;87.20;;;;;;5066881;28;20425;-68
2022/03/06 06:37:10;;;;;;;9.60;7.60;;;5.60;86.80;;;;;;5064679;28;20461;-68
2022/03/06 06:39:36;;;;;;;9.68;7.53;;;5.60;86.50;;;;;;5048912;28;20419;-67
2022/03/06 06:42:03;;;;;;;10.55;7.10;;;5.60;86.70;;;;;;5065234;28;20423;-67
2022/03/06 06:44:29;;;;;;;9.63;6.63;;;5.70;86.70;;;;;;5032656;28;20408;-68
2022/03/06 06:46:55;;;;;;;8.50;6.78;;;5.70;86.50;;;;;;5065753;28;20416;-67
2022/03/06 06:49:21;;;;;;;9.13;6.53;;;5.70;86.40;;;;;;5067547;28;20407;-67
2022/03/06 06:51:46;;;;;;;8.83;5.90;;;5.80;86.00;;;;;;5049001;28;20502;-67
2022/03/06 06:54:13;;;;;;;7.57;5.18;;;5.80;86.30;;;;;;5065490;28;20416;-68
2022/03/06 06:56:39;;;;;;;7.67;5.20;;;5.80;85.90;;;;;;5065865;28;20896;-68
2022/03/06 06:59:05;;;;;;;7.80;5.13;;;5.80;85.80;;;;;;5067053;28;20487;-68
2022/03/06 07:01:31;;;;;;;10.85;5.50;;;5.90;85.70;;;;;;5065262;28;20482;-69
2022/03/06 07:03:56;;;;;;;7.85;5.20;;;5.90;85.20;;;;;;5066110;28;20422;-68
2022/03/06 07:06:22;;;;;;;8.37;5.07;;;5.90;85.60;;;;;;5067705;28;23047;-64
2022/03/06 07:08:48;;;;;;;8.20;5.30;;;6.00;87.10;;;;;;5071377;28;20483;-69
2022/03/06 07:11:13;;;;;;;8.47;5.60;;;6.00;86.80;;;;;;5066424;28;20411;-69
2022/03/06 07:13:39;;;;;;;7.40;5.70;;;6.00;86.40;;;;;;5068243;28;20415;-69
2022/03/06 07:16:05;;;;;;;8.93;6.22;;;6.10;86.20;;;;;;5067473;28;20431;-71
2022/03/06 07:18:30;;;;;;;9.07;6.18;;;6.00;86.90;;;;;;5068355;28;20439;-72
2022/03/06 07:20:56;;;;;;;9.40;5.90;;;6.10;86.80;;;;;;5070484;28;20487;-71
2022/03/06 07:23:22;;;;;;;9.27;5.73;;;6.10;86.70;;;;;;5070425;28;20497;-70
2022/03/06 07:25:47;;;;;;;8.30;6.22;;;6.10;87.00;;;;;;5050905;28;20939;-71
2022/03/06 07:28:13;;;;;;;11.68;7.03;;;6.10;87.10;;;;;;5064429;28;20430;-69
2022/03/06 07:30:39;;;;;;;10.37;7.10;;;6.20;88.10;;;;;;5072488;28;20771;-70
2022/03/06 07:33:05;;;;;;;10.43;7.53;;;6.20;88.40;;;;;;5048571;28;20411;-69
2022/03/06 07:35:31;;;;;;;10.80;7.25;;;6.20;88.30;;;;;;5082394;28;20411;-69
2022/03/06 07:37:58;;;;;;;10.95;7.50;;;6.20;89.40;;;;;;5067356;28;20846;-70
2022/03/06 07:40:24;;;;;;;10.43;7.38;;;6.20;88.90;;;;;;5067013;28;20400;-71
2022/03/06 07:42:50;;;;;;;10.38;7.22;;;6.30;90.00;;;;;;5056043;28;20754;-72
2022/03/06 07:45:16;;;;;;;12.20;8.35;;;6.30;89.80;;;;;;5069051;28;20403;-72
2022/03/06 07:47:42;;;;;;;11.18;7.70;;;6.30;89.70;;;;;;5071517;28;20893;-69
2022/03/06 07:50:12;;;;;;;11.32;7.95;;;6.30;89.70;;;;;;5055607;28;20407;-71
2022/03/06 07:52:38;;;;;;;10.57;7.78;;;6.30;89.60;;;;;;5072341;28;20482;-68
2022/03/06 07:55:06;;;;;;;11.63;7.93;;;6.30;90.00;;;;;;5066276;28;20828;-69
2022/03/06 07:57:32;;;;;;;14.50;8.32;;;6.40;90.10;;;;;;5066640;28;20398;-69
2022/03/06 07:59:58;;;;;;;14.00;8.40;;;6.50;90.10;;;;;;5066947;28;20411;-69
2022/03/06 08:02:23;;;;;;;12.27;7.93;;;6.50;90.00;;;;;;5048419;28;20442;-69
2022/03/06 08:04:49;;;;;;;10.67;7.83;;;6.50;89.80;;;;;;5070429;28;20406;-68
2022/03/06 08:07:14;;;;;;;12.52;8.10;;;6.60;90.10;;;;;;5067125;28;20411;-69
2022/03/06 08:09:40;;;;;;;10.60;7.50;;;6.70;90.00;;;;;;5052672;28;20482;-69
2022/03/06 08:12:07;;;;;;;12.70;7.25;;;6.80;89.40;;;;;;5067423;28;20670;-68
2022/03/06 08:14:39;;;;;;;8.90;6.43;;;6.50;90.10;;;;;;5066636;28;20210;-70
2022/03/06 08:17:05;;;;;;;9.30;5.97;;;6.30;90.60;;;;;;5055422;28;20185;-70
2022/03/06 08:19:31;;;;;;;11.00;6.72;;;6.30;90.90;;;;;;5050377;28;20203;-70
2022/03/06 08:21:56;;;;;;;12.63;6.32;;;6.20;91.00;;;;;;5068179;28;20174;-70
2022/03/06 08:24:22;;;;;;;9.83;7.20;;;6.30;91.10;;;;;;5068661;28;20400;-70
2022/03/06 08:26:48;;;;;;;9.88;6.40;;;6.70;90.40;;;;;;5077027;28;20410;-71
2022/03/06 08:29:13;;;;;;;9.63;6.33;;;7.20;89.40;;;;;;5068637;28;20446;-70
2022/03/06 08:31:39;;;;;;;9.80;6.70;;;7.50;88.50;;;;;;5069968;28;20502;-70
2022/03/06 08:34:05;;;;;;;8.53;6.10;;;8.00;86.10;;;;;;5078171;28;20399;-69
2022/03/06 08:36:31;;;;;;;9.45;6.43;;;8.50;83.90;;;;;;5065356;28;20975;-68
2022/03/06 08:38:57;;;;;;;8.63;5.47;;;9.10;80.40;;;;;;5069040;28;20413;-72
2022/03/06 08:41:22;;;;;;;7.05;4.82;;;10.00;79.00;;;;;;5066299;28;20781;-69
2022/03/06 08:43:48;;;;;;;7.33;4.93;;;11.20;72.80;;;;;;5053711;28;20498;-69
2022/03/06 08:46:13;;;;;;;9.03;5.03;;;12.30;68.40;;;;;;5066328;28;20422;-68
2022/03/06 08:48:39;;;;;;;6.53;4.50;;;13.50;62.80;;;;;;5069605;28;20914;-69
2022/03/06 08:51:05;;;;;;;6.80;4.70;;;14.90;56.60;;;;;;5067044;28;20419;-69
2022/03/06 08:53:32;;;;;;;5.93;4.07;;;16.10;51.60;;;;;;5066887;28;20489;-68
2022/03/06 08:55:59;;;;;;;5.43;3.78;;;16.90;49.20;;;;;;5069372;28;20411;-67
2022/03/06 08:58:25;;;;;;;6.10;3.90;;;17.70;47.10;;;;;;5068510;28;20407;-69
2022/03/06 09:00:50;;;;;;;5.73;3.67;;;18.40;44.00;;;;;;5064537;28;20422;-68
2022/03/06 09:03:16;;;;;;;8.30;3.50;;;19.00;43.30;;;;;;5076119;28;20463;-67
2022/03/06 09:05:41;;;;;;;6.38;3.72;;;19.80;41.80;;;;;;5065187;28;20432;-69
2022/03/06 09:08:11;;;;;;;7.07;3.72;;;20.60;38.70;;;;;;5066761;28;20404;-69
2022/03/06 09:10:38;;;;;;;6.43;3.42;;;21.50;36.90;;;;;;5071909;28;20732;-70
2022/03/06 09:13:04;;;;;;;3.88;2.67;;;20.80;41.20;;;;;;5069511;28;20190;-69
2022/03/06 09:15:30;;;;;;;6.20;2.92;;;20.40;43.40;;;;;;5069453;28;20214;-70
2022/03/06 09:17:56;;;;;;;6.38;3.45;;;20.30;44.30;;;;;;5069291;28;20190;-68
2022/03/06 09:20:22;;;;;;;5.68;3.20;;;20.40;44.70;;;;;;5069289;28;20194;-69
2022/03/06 09:22:48;;;;;;;5.65;2.78;;;20.50;44.30;;;;;;5067548;28;20273;-69
2022/03/06 09:25:14;;;;;;;5.63;2.90;;;20.50;44.40;;;;;;5074043;28;20278;-71
2022/03/06 09:27:40;;;;;;;4.63;3.03;;;20.50;44.30;;;;;;5050939;28;20260;-70
2022/03/06 09:30:07;;;;;;;4.35;3.15;;;20.50;43.80;;;;;;5078363;28;20251;-69
2022/03/06 09:32:33;;;;;;;4.85;3.10;;;20.70;43.50;;;;;;5074472;28;20691;-69
2022/03/06 09:34:59;;;;;;;6.75;3.00;;;21.10;43.30;;;;;;5070995;28;20252;-67
2022/03/06 09:37:24;;;;;;;6.22;3.40;;;21.40;42.50;;;;;;5074309;28;20261;-68
2022/03/06 09:39:50;;;;;;;4.35;2.70;;;21.70;41.60;;;;;;5071511;28;20197;-68
2022/03/06 09:42:19;;;;;;;4.60;2.88;;;22.00;40.90;;;;;;5071343;28;20857;-69
2022/03/06 09:44:47;;;;;;;5.10;2.72;;;22.20;40.30;;;;;;5070837;28;20297;-68
2022/03/06 09:47:13;;;;;;;4.32;2.85;;;22.40;40.00;;;;;;5054355;28;20228;-68
2022/03/06 09:49:42;;;;;;;6.32;3.03;;;22.60;39.20;;;;;;5072101;28;20182;-68
2022/03/06 09:52:11;;;;;;;5.35;2.80;;;22.70;38.40;;;;;;5071943;28;20239;-68
2022/03/06 09:54:37;;;;;;;5.28;2.90;;;22.70;38.20;;;;;;5053160;28;20619;-68
2022/03/06 09:57:04;;;;;;;3.38;2.50;;;22.80;38.20;;;;;;5070194;28;20179;-68
2022/03/06 09:59:31;;;;;;;4.57;2.80;;;22.90;38.00;;;;;;5076738;28;20193;-68
2022/03/06 10:02:04;;;;;;;7.95;3.50;;;22.90;37.80;;;;;;5076103;28;20713;-68
2022/03/06 10:04:34;;;;;;;4.70;2.95;;;23.00;36.30;;;;;;5070894;28;20182;-68
2022/03/06 10:07:03;;;;;;;4.70;3.10;;;23.00;36.50;;;;;;5072046;28;20193;-69
2022/03/06 10:09:31;;;;;;;4.50;2.70;;;23.20;35.90;;;;;;5051701;28;20403;-69
2022/03/06 10:11:57;;;;;;;4.93;2.70;;;25.10;29.50;;;;;;5076815;28;20417;-69
2022/03/06 10:14:40;;;;;;;4.63;2.60;;;25.80;28.30;;;;;;5072128;28;20451;-68
2022/03/06 10:17:17;;;;;;;5.22;3.00;;;25.80;28.20;;;;;;5068611;28;20403;-69
2022/03/06 10:19:55;;;;;;;3.35;2.78;;;25.40;27.80;;;;;;5069273;28;20534;-70
2022/03/06 10:22:24;;;;;;;5.45;3.00;;;24.60;28.30;;;;;;5070714;28;20411;-68
2022/03/06 10:24:54;;;;;;;5.43;2.92;;;23.90;30.00;;;;;;5073976;28;20412;-68
2022/03/06 10:27:47;;;;;;;5.93;3.20;;;23.60;29.50;;;;;;5069119;28;20395;-69
2022/03/06 10:30:22;;;;;;;5.20;2.90;;;23.30;31.40;;;;;;5071213;28;20419;-69
2022/03/06 10:32:48;;;;;;;4.75;2.92;;;23.10;31.80;;;;;;5069410;28;20417;-69
2022/03/06 10:35:13;;;;;;;5.33;3.00;;;22.80;31.70;;;;;;5051438;28;20461;-69
2022/03/06 10:37:39;;;;;;;5.80;3.30;;;22.50;31.90;;;;;;5068979;28;20768;-70
2022/03/06 10:40:05;;;;;;;5.63;3.58;;;22.00;32.80;;;;;;5050789;28;20408;-69
2022/03/06 10:42:31;;;;;;;5.40;3.20;;;21.60;32.10;;;;;;5053809;28;20938;-72
2022/03/06 10:44:56;;;;;;;6.80;3.40;;;21.30;33.30;;;;;;5074070;28;20450;-68
2022/03/06 10:47:22;;;;;;;6.80;3.35;;;21.10;33.80;;;;;;5067808;28;20441;-68
2022/03/06 10:50:05;;;;;;;5.40;3.50;;;20.90;34.00;;;;;;5068832;28;20518;-68
2022/03/06 10:52:41;;;;;;;4.63;3.05;;;20.70;35.20;;;;;;5066866;28;20400;-68
2022/03/06 10:55:07;;;;;;;5.13;3.30;;;20.60;35.90;;;;;;5069874;28;20818;-69
2022/03/06 10:57:33;;;;;;;5.40;3.35;;;20.40;34.90;;;;;;5069875;28;20512;-68
2022/03/06 11:00:00;;;;;;;6.53;3.27;;;20.10;36.00;;;;;;5070804;28;20450;-68
2022/03/06 11:02:27;;;;;;;5.78;3.50;;;19.90;37.40;;;;;;5051851;28;20759;-68
2022/03/06 11:04:56;;;;;;;5.20;3.30;;;19.70;37.30;;;;;;5068695;28;20414;-67
2022/03/06 11:07:26;;;;;;;6.60;3.83;;;19.50;37.60;;;;;;5067805;28;20494;-68
2022/03/06 11:09:53;;;;;;;5.03;3.50;;;19.40;36.60;;;;;;5070056;28;20411;-68
2022/03/06 11:12:20;;;;;;;5.50;3.47;;;19.20;37.70;;;;;;5072438;28;20417;-68
2022/03/06 11:14:47;;;;;;;8.00;3.85;;;19.10;37.70;;;;;;5051894;28;21172;-70
2022/03/06 11:17:13;;;;;;;5.47;3.57;;;18.90;37.20;;;;;;5069115;28;20408;-68
2022/03/06 11:19:39;;;;;;;7.13;3.83;;;18.80;38.40;;;;;;5067941;28;20482;-69
2022/03/06 11:22:19;;;;;;;6.20;3.20;;;18.60;38.00;;;;;;5049766;28;20793;-69
2022/03/06 11:24:52;;;;;;;5.30;3.75;;;18.50;38.90;;;;;;5066694;28;20430;-69
2022/03/06 11:27:50;;;;;;;5.50;3.58;;;18.20;39.10;;;;;;5069633;28;20415;-68
2022/03/06 11:30:20;;;;;;;5.28;3.53;;;18.10;39.10;;;;;;5048786;28;20411;-69
2022/03/06 11:32:58;;;;;;;6.10;3.67;;;18.00;39.20;;;;;;5050910;28;20457;-68
2022/03/06 11:35:33;;;;;;;5.57;3.50;;;18.00;40.20;;;;;;5081500;28;20424;-68
2022/03/06 11:38:01;;;;;;;4.00;3.30;;;17.90;40.30;;;;;;5066448;28;20419;-69
2022/03/06 11:40:32;;;;;;;5.53;3.70;;;17.90;40.60;;;;;;5049644;28;20415;-69
2022/03/06 11:42:58;;;;;;;6.40;3.35;;;17.70;40.20;;;;;;5050562;28;20768;-68
2022/03/06 11:45:44;;;;;;;9.50;3.27;;;17.50;39.80;;;;;;5068919;28;20411;-69
2022/03/06 11:48:21;;;;;;;4.45;3.03;;;17.40;41.10;;;;;;5066799;28;20419;-68
2022/03/06 11:51:12;;;;;;;6.30;3.03;;;17.30;40.50;;;;;;5067292;28;20521;-68
2022/03/06 11:53:55;;;;;;;4.45;3.00;;;17.20;41.10;;;;;;5068950;28;20419;-68
2022/03/06 11:56:39;;;;;;;4.87;2.80;;;17.10;41.80;;;;;;5050429;28;20557;-68
2022/03/06 11:59:16;;;;;;;4.50;3.00;;;16.90;41.10;;;;;;5067447;28;20418;-69
2022/03/06 12:01:55;;;;;;;5.30;2.85;;;16.70;40.50;;;;;;5066057;28;20487;-69
2022/03/06 12:04:26;;;;;;;4.55;2.72;;;16.60;41.50;;;;;;5067611;28;20412;-68
2022/03/06 12:07:12;;;;;;;6.93;3.08;;;16.60;44.90;;;;;;5050495;28;20459;-68
2022/03/06 12:09:42;;;;;;;4.18;2.90;;;16.60;42.60;;;;;;5049202;28;20473;-67
2022/03/06 12:12:12;;;;;;;5.57;2.65;;;16.70;41.10;;;;;;5068460;28;20494;-68
2022/03/06 12:14:57;;;;;;;5.97;2.70;;;16.70;41.80;;;;;;5067605;28;20426;-68
2022/03/06 12:17:34;;;;;;;5.78;3.15;;;16.70;41.40;;;;;;5066385;28;20895;-67
2022/03/06 12:20:03;;;;;;;3.83;2.60;;;16.70;41.80;;;;;;5067957;28;20445;-67
2022/03/06 12:22:28;;;;;;;5.25;2.67;;;16.60;41.60;;;;;;5064259;28;20411;-68
2022/03/06 12:25:06;;;;;;;4.00;2.70;;;16.60;41.10;;;;;;5048607;28;20406;-68
2022/03/06 12:27:32;;;;;;;4.95;2.60;;;16.50;42.60;;;;;;5061973;28;20468;-68
2022/03/06 12:30:00;;;;;;;4.05;2.60;;;16.50;41.40;;;;;;5060798;28;20425;-68
2022/03/06 12:32:28;;;;;;;5.05;2.75;;;16.40;42.90;;;;;;5058581;28;20443;-68
2022/03/06 12:35:04;;;;;;;5.00;2.50;;;16.40;41.00;;;;;;5062513;28;20508;-68
2022/03/06 12:37:40;;;;;;;3.90;2.42;;;16.40;40.50;;;;;;5030739;28;20407;-69
2022/03/06 12:40:08;;;;;;;4.72;2.65;;;16.40;40.70;;;;;;5060886;28;20752;-69
2022/03/06 12:42:35;;;;;;;7.55;4.38;;;16.20;40.70;;;;;;5059632;28;20423;-69
2022/03/06 12:45:18;;;;;;;4.88;3.15;;;16.20;39.70;;;;;;5061892;28;20902;-68